Time;durP1;ratioP1;P1;durP2;ratioP2;P2;SDS_P1;SDS_P2;PMS_P1;PMS_P2;Temp;Humidity;BMP_temperature;BMP_pressure;BME280_temperature;BME280_humidity;BME280_pressure;Samples;Min_cycle;Max_cycle;Signal;HPM_P1;HPM_P2
2023/04/27 00:00:00;;;;;;;6.10;1.65;;;;;;;11.79;70.17;100112.09;5010359;28;20702;-81
2023/04/27 00:02:26;;;;;;;2.25;1.00;;;;;;;11.78;69.76;100132.78;5010277;28;20062;-81
2023/04/27 00:04:51;;;;;;;1.90;1.60;;;;;;;11.70;70.27;100121.91;5016006;28;20021;-79
2023/04/27 00:07:17;;;;;;;1.23;1.13;;;;;;;11.73;70.63;100116.22;5018658;28;20041;-78
2023/04/27 00:09:42;;;;;;;6.65;1.83;;;;;;;11.82;70.43;100122.59;5012013;28;20036;-81
2023/04/27 00:12:08;;;;;;;2.25;1.48;;;;;;;11.80;69.61;100114.63;5010451;28;20033;-79
2023/04/27 00:14:33;;;;;;;5.85;1.30;;;;;;;11.77;70.31;100116.78;5009731;28;20146;-80
2023/04/27 00:16:58;;;;;;;2.22;1.63;;;;;;;11.82;70.26;100111.81;5009744;28;20495;-81
2023/04/27 00:19:24;;;;;;;2.63;1.27;;;;;;;11.77;70.09;100114.91;5009595;28;20037;-80
2023/04/27 00:21:49;;;;;;;3.53;1.48;;;;;;;11.62;70.23;100108.25;5009997;28;20030;-79
2023/04/27 00:24:15;;;;;;;2.50;1.38;;;;;;;11.52;69.94;100123.59;5009440;28;20021;-79
2023/04/27 00:26:41;;;;;;;9.70;2.28;;;;;;;11.42;69.18;100122.75;5010140;28;20449;-79
2023/04/27 00:29:06;;;;;;;8.73;2.17;;;;;;;11.34;68.93;100109.97;5009472;28;20034;-78
2023/04/27 00:31:31;;;;;;;2.15;1.80;;;;;;;11.24;68.47;100117.22;5009674;28;20508;-79
2023/04/27 00:33:57;;;;;;;2.55;1.80;;;;;;;11.10;68.26;100089.88;5008346;28;20029;-79
2023/04/27 00:36:22;;;;;;;7.88;1.58;;;;;;;10.96;68.05;100101.03;5009270;28;20037;-79
2023/04/27 00:38:48;;;;;;;9.23;1.55;;;;;;;10.99;68.98;100098.06;5009169;28;20041;-80
2023/04/27 00:41:13;;;;;;;10.23;1.48;;;;;;;10.92;68.74;100104.00;5008168;28;20065;-79
2023/04/27 00:43:44;;;;;;;6.40;1.65;;;;;;;10.88;68.20;100091.84;5009438;28;20120;-79
2023/04/27 00:46:11;;;;;;;4.15;1.55;;;;;;;10.91;68.32;100117.63;5009191;28;20030;-79
2023/04/27 00:48:37;;;;;;;2.70;1.58;;;;;;;10.89;67.70;100115.06;5010026;28;20057;-81
2023/04/27 00:51:03;;;;;;;1.45;1.05;;;;;;;10.87;67.95;100095.53;5009426;28;20044;-80
2023/04/27 00:53:30;;;;;;;4.03;1.08;;;;;;;10.86;67.58;100101.88;5009880;28;20068;-80
2023/04/27 00:55:57;;;;;;;9.70;1.70;;;;;;;10.87;67.21;100094.66;5012988;28;20025;-79
2023/04/27 00:58:22;;;;;;;4.97;1.75;;;;;;;10.75;66.73;100102.03;5011321;28;20083;-81
2023/04/27 01:00:48;;;;;;;7.35;1.10;;;;;;;10.79;66.42;100106.09;5014560;28;20037;-80
2023/04/27 01:03:14;;;;;;;7.50;1.98;;;;;;;10.78;65.71;100101.75;5019946;28;20029;-79
2023/04/27 01:05:40;;;;;;;11.20;1.70;;;;;;;10.80;65.45;100115.91;5011151;28;20026;-80
2023/04/27 01:08:06;;;;;;;4.57;1.23;;;;;;;10.78;65.86;100120.56;5010946;28;20559;-78
2023/04/27 01:10:31;;;;;;;12.25;1.55;;;;;;;10.81;65.01;100117.59;5007470;28;20029;-79
2023/04/27 01:12:57;;;;;;;7.78;1.50;;;;;;;10.80;64.99;100136.56;5008482;28;20038;-81
2023/04/27 01:15:22;;;;;;;6.97;1.77;;;;;;;10.75;64.58;100141.50;5008238;28;20041;-79
2023/04/27 01:17:47;;;;;;;8.50;2.08;;;;;;;10.68;64.12;100125.06;5007210;28;20037;-80
2023/04/27 01:20:13;;;;;;;5.95;1.88;;;;;;;10.61;63.10;100121.22;5008868;28;20033;-80
2023/04/27 01:22:39;;;;;;;7.55;2.38;;;;;;;10.63;63.40;100129.16;5008420;28;20025;-79
2023/04/27 01:25:06;;;;;;;10.32;2.88;;;;;;;10.66;63.23;100110.91;5006944;28;20029;-79
2023/04/27 01:27:32;;;;;;;9.70;3.10;;;;;;;10.63;63.08;100108.50;5009167;28;20033;-79
2023/04/27 01:29:58;;;;;;;5.60;2.60;;;;;;;10.59;63.59;100133.97;5005429;28;20038;-79
2023/04/27 01:32:23;;;;;;;4.47;2.63;;;;;;;10.53;63.36;100128.28;5005692;28;20148;-78
2023/04/27 01:34:48;;;;;;;5.88;2.50;;;;;;;10.57;64.20;100097.44;5004743;28;20048;-80
2023/04/27 01:37:14;;;;;;;7.07;2.50;;;;;;;10.46;64.46;100111.00;5005228;28;20025;-80
2023/04/27 01:39:40;;;;;;;8.38;2.13;;;;;;;10.52;64.99;100105.91;4972599;28;20207;-80
2023/04/27 01:42:05;;;;;;;12.35;2.83;;;;;;;10.48;65.15;100109.88;5005686;28;20772;-76
2023/04/27 01:44:31;;;;;;;14.52;2.95;;;;;;;10.47;65.08;100116.22;5004935;28;20033;-78
2023/04/27 01:46:56;;;;;;;8.07;3.17;;;;;;;10.49;65.02;100108.88;5005760;28;20052;-82
2023/04/27 01:49:22;;;;;;;11.35;2.90;;;;;;;10.48;64.64;100126.00;5005157;28;20445;-80
2023/04/27 01:51:47;;;;;;;12.02;3.45;;;;;;;10.45;65.15;100133.50;5004990;28;20034;-79
2023/04/27 01:54:12;;;;;;;5.72;2.85;;;;;;;10.46;65.03;100127.97;5004952;28;20128;-81
2023/04/27 01:56:38;;;;;;;10.85;2.95;;;;;;;10.39;65.22;100126.81;5006131;28;20489;-79
2023/04/27 01:59:03;;;;;;;9.82;3.03;;;;;;;10.28;64.27;100130.44;5012052;28;20038;-79
2023/04/27 02:01:30;;;;;;;17.38;3.25;;;;;;;10.24;64.73;100133.56;5015249;28;20046;-79
2023/04/27 02:03:55;;;;;;;9.85;2.72;;;;;;;10.14;64.41;100130.81;5005120;28;20037;-79
2023/04/27 02:06:21;;;;;;;8.80;3.30;;;;;;;10.19;64.35;100130.41;5005026;28;20041;-80
2023/04/27 02:08:46;;;;;;;4.50;2.67;;;;;;;10.14;64.13;100116.53;5014828;28;20109;-79
2023/04/27 02:11:12;;;;;;;5.95;2.90;;;;;;;10.21;64.31;100128.44;5014535;28;20038;-79
2023/04/27 02:13:37;;;;;;;8.98;3.67;;;;;;;10.21;63.96;100131.13;5013990;28;20839;-80
2023/04/27 02:16:03;;;;;;;9.88;3.70;;;;;;;10.15;63.77;100131.69;5013543;28;20033;-80
2023/04/27 02:18:31;;;;;;;11.85;3.95;;;;;;;10.17;63.10;100132.38;5014756;28;20400;-80
2023/04/27 02:20:56;;;;;;;10.50;3.88;;;;;;;10.15;63.45;100140.56;5014346;28;20045;-79
2023/04/27 02:23:22;;;;;;;5.97;3.92;;;;;;;10.10;63.50;100136.53;5015126;28;20030;-81
2023/04/27 02:25:47;;;;;;;15.52;3.83;;;;;;;10.00;63.48;100127.59;5014619;28;20037;-80
2023/04/27 02:28:13;;;;;;;10.50;4.10;;;;;;;9.97;63.73;100141.31;5012221;28;20049;-80
2023/04/27 02:30:38;;;;;;;8.65;4.68;;;;;;;9.90;63.67;100148.19;5014503;28;20148;-80
2023/04/27 02:33:04;;;;;;;9.02;3.53;;;;;;;9.83;63.68;100162.13;5014570;28;20406;-80
2023/04/27 02:35:31;;;;;;;8.70;4.22;;;;;;;9.74;63.33;100145.97;5014362;28;20029;-80
2023/04/27 02:37:56;;;;;;;12.13;4.82;;;;;;;9.87;63.35;100151.13;5014862;28;20021;-80
2023/04/27 02:40:22;;;;;;;33.05;4.63;;;;;;;9.82;63.62;100175.69;5014084;28;20041;-79
2023/04/27 02:42:47;;;;;;;12.57;4.60;;;;;;;9.81;63.25;100150.66;5014866;28;20026;-81
2023/04/27 02:45:13;;;;;;;9.75;4.63;;;;;;;9.81;63.32;100158.72;5014422;28;20033;-80
2023/04/27 02:47:38;;;;;;;14.40;4.43;;;;;;;9.76;63.53;100150.22;5014725;28;20494;-80
2023/04/27 02:50:04;;;;;;;12.43;4.32;;;;;;;9.76;63.53;100149.34;4997369;28;20057;-82
2023/04/27 02:52:30;;;;;;;10.75;4.60;;;;;;;9.72;63.63;100153.31;5017629;28;20032;-77
2023/04/27 02:54:56;;;;;;;20.52;4.55;;;;;;;9.65;64.07;100150.28;5016935;28;20037;-79
2023/04/27 02:57:21;;;;;;;19.23;5.35;;;;;;;9.71;64.06;100178.44;5019537;28;20053;-79
2023/04/27 02:59:47;;;;;;;7.22;3.85;;;;;;;9.70;63.86;100166.00;5016711;28;20449;-78
2023/04/27 03:02:12;;;;;;;11.15;4.53;;;;;;;9.73;63.75;100182.69;5014842;28;21115;-78
2023/04/27 03:04:37;;;;;;;16.60;5.40;;;;;;;9.75;63.54;100174.53;5013958;28;20040;-79
2023/04/27 03:07:03;;;;;;;11.15;4.45;;;;;;;9.68;63.56;100170.66;5014574;28;20406;-77
2023/04/27 03:09:29;;;;;;;26.55;4.45;;;;;;;9.68;63.13;100149.16;5014979;28;20044;-78
2023/04/27 03:11:54;;;;;;;10.95;4.80;;;;;;;9.68;63.08;100167.97;5024162;28;20025;-79
2023/04/27 03:14:20;;;;;;;17.13;5.38;;;;;;;9.65;62.99;100173.59;5019956;28;20058;-79
2023/04/27 03:16:45;;;;;;;13.07;3.83;;;;;;;9.62;63.54;100166.66;5014385;28;20148;-78
2023/04/27 03:19:11;;;;;;;15.50;4.57;;;;;;;9.69;62.62;100164.31;5012220;28;20400;-77
2023/04/27 03:21:36;;;;;;;9.73;5.00;;;;;;;9.67;62.70;100160.88;5011379;28;20037;-78
2023/04/27 03:24:02;;;;;;;13.50;4.97;;;;;;;9.65;62.70;100162.84;5011328;28;20022;-79
2023/04/27 03:26:28;;;;;;;27.13;5.13;;;;;;;9.70;62.46;100171.34;5011398;28;20165;-77
2023/04/27 03:28:54;;;;;;;10.65;3.85;;;;;;;9.74;62.64;100184.41;5010858;28;20026;-80
2023/04/27 03:31:20;;;;;;;11.00;5.00;;;;;;;9.76;62.66;100186.94;5010488;28;20029;-80
2023/04/27 03:33:45;;;;;;;26.20;4.35;;;;;;;9.77;62.65;100181.47;5010229;28;20164;-79
2023/04/27 03:36:11;;;;;;;13.20;3.83;;;;;;;9.83;62.36;100183.63;5010888;28;20668;-78
2023/04/27 03:38:37;;;;;;;13.77;4.70;;;;;;;9.78;62.11;100164.34;5010682;28;20030;-78
2023/04/27 03:41:02;;;;;;;13.18;4.07;;;;;;;9.87;62.32;100194.97;5011051;28;20431;-78
2023/04/27 03:43:28;;;;;;;13.10;4.85;;;;;;;9.91;62.67;100184.81;5010751;28;20018;-77
2023/04/27 03:45:54;;;;;;;13.60;5.13;;;;;;;9.93;63.10;100183.69;5010851;28;20109;-78
2023/04/27 03:48:20;;;;;;;25.73;5.70;;;;;;;9.95;62.78;100210.41;5010793;28;20087;-79
2023/04/27 03:50:46;;;;;;;10.27;5.07;;;;;;;9.91;62.49;100207.13;5011342;28;20109;-78
2023/04/27 03:53:12;;;;;;;10.63;5.15;;;;;;;9.93;63.39;100188.22;5013788;28;20101;-79
2023/04/27 03:55:39;;;;;;;11.60;4.38;;;;;;;9.84;63.20;100201.44;5011254;28;20528;-78
2023/04/27 03:58:05;;;;;;;11.82;4.82;;;;;;;9.96;63.33;100204.06;5010440;28;20055;-78
2023/04/27 04:00:32;;;;;;;8.73;4.07;;;;;;;10.00;62.89;100202.84;5010285;28;20045;-77
2023/04/27 04:02:57;;;;;;;22.90;5.20;;;;;;;9.99;62.22;100209.16;5009919;28;20033;-79
2023/04/27 04:05:22;;;;;;;9.90;4.88;;;;;;;9.96;62.28;100204.06;5009774;28;20042;-78
2023/04/27 04:07:48;;;;;;;7.22;4.22;;;;;;;9.88;62.23;100203.88;5010078;28;20084;-77
2023/04/27 04:10:13;;;;;;;15.70;4.90;;;;;;;9.91;61.83;100219.72;5010208;28;20121;-79
2023/04/27 04:12:39;;;;;;;22.85;4.47;;;;;;;9.92;61.95;100224.09;5009800;28;20029;-79
2023/04/27 04:15:06;;;;;;;14.80;5.25;;;;;;;9.94;61.76;100251.72;5009684;28;20116;-77
2023/04/27 04:17:32;;;;;;;20.52;6.07;;;;;;;9.85;61.94;100224.63;5010125;28;20029;-78
2023/04/27 04:19:58;;;;;;;15.43;5.03;;;;;;;9.88;61.80;100225.38;5010272;28;20030;-77
2023/04/27 04:22:24;;;;;;;13.43;5.05;;;;;;;9.97;61.57;100238.00;5009506;28;20505;-79
2023/04/27 04:24:50;;;;;;;22.95;4.88;;;;;;;9.98;61.73;100221.75;5016926;28;20549;-79
2023/04/27 04:27:15;;;;;;;18.80;4.88;;;;;;;9.99;61.11;100233.34;5019612;28;20128;-77
2023/04/27 04:29:41;;;;;;;17.85;5.22;;;;;;;9.89;61.69;100208.25;5013809;28;20116;-78
2023/04/27 04:32:08;;;;;;;15.25;5.60;;;;;;;9.88;61.80;100244.16;5018957;28;20026;-80
2023/04/27 04:34:33;;;;;;;15.13;5.40;;;;;;;9.90;61.84;100231.44;5011700;28;20065;-78
2023/04/27 04:36:59;;;;;;;9.18;4.35;;;;;;;9.92;61.65;100229.47;5009624;28;20389;-77
2023/04/27 04:39:29;;;;;;;40.40;5.63;;;;;;;9.97;60.88;100243.38;5009551;28;20048;-78
2023/04/27 04:41:54;;;;;;;19.15;4.57;;;;;;;9.91;61.56;100234.00;5010340;28;20022;-81
2023/04/27 04:44:20;;;;;;;13.32;4.40;;;;;;;9.91;61.54;100238.53;5009017;28;21109;-81
2023/04/27 04:46:46;;;;;;;24.15;4.97;;;;;;;9.96;61.74;100290.03;5011215;28;20052;-80
2023/04/27 04:49:11;;;;;;;13.13;5.78;;;;;;;10.00;61.39;100253.88;5019046;28;20481;-80
2023/04/27 04:51:42;;;;;;;12.75;5.07;;;;;;;10.01;61.65;100234.06;5019400;28;20026;-82
2023/04/27 04:54:07;;;;;;;11.93;4.53;;;;;;;10.03;61.09;100256.28;5009623;28;20058;-79
2023/04/27 04:56:32;;;;;;;15.45;4.72;;;;;;;10.11;60.97;100245.75;5010742;28;20068;-80
2023/04/27 04:58:58;;;;;;;22.70;6.32;;;;;;;10.11;60.84;100264.53;5009773;28;20046;-80
2023/04/27 05:01:23;;;;;;;19.00;4.75;;;;;;;10.20;60.85;100261.97;5010137;28;20045;-80
2023/04/27 05:03:49;;;;;;;23.65;5.70;;;;;;;10.20;61.08;100256.59;5009868;28;20034;-79
2023/04/27 05:06:14;;;;;;;26.02;4.82;;;;;;;10.14;61.31;100256.25;5016128;28;20033;-83
2023/04/27 05:08:40;;;;;;;16.95;5.15;;;;;;;10.23;61.47;100266.22;5018893;28;20060;-83
2023/04/27 05:11:05;;;;;;;24.58;5.55;;;;;;;10.16;60.81;100251.59;5021202;28;20038;-83
2023/04/27 05:13:31;;;;;;;19.55;5.65;;;;;;;10.26;60.82;100271.34;5019869;28;20049;-84
2023/04/27 05:15:57;;;;;;;14.25;4.65;;;;;;;10.32;61.07;100265.44;5015190;28;20026;-84
2023/04/27 05:18:22;;;;;;;16.02;5.43;;;;;;;10.39;61.48;100288.13;5012395;28;20440;-83
2023/04/27 05:20:48;;;;;;;37.75;6.45;;;;;;;10.46;61.07;100288.44;5010164;28;20408;-84
2023/04/27 05:23:13;;;;;;;17.95;5.30;;;;;;;10.42;61.57;100293.22;5011196;28;20053;-83
2023/04/27 05:25:42;;;;;;;13.63;5.93;;;;;;;10.49;60.95;100304.31;4978912;28;20095;-84
2023/04/27 05:28:08;;;;;;;28.77;6.32;;;;;;;10.55;60.96;100318.06;5014336;28;20064;-79
2023/04/27 05:30:34;;;;;;;12.70;4.55;;;;;;;10.57;61.09;100323.31;5016523;28;20097;-84
2023/04/27 05:32:59;;;;;;;42.30;6.75;;;;;;;10.56;61.19;100314.38;5015989;28;20049;-79
2023/04/27 05:35:25;;;;;;;12.40;5.03;;;;;;;10.63;61.10;100307.50;5010609;28;20032;-80
2023/04/27 05:37:51;;;;;;;30.60;5.93;;;;;;;10.69;60.98;100325.81;5009057;28;20061;-81
2023/04/27 05:40:16;;;;;;;15.13;5.03;;;;;;;10.74;60.77;100337.00;5010221;28;20041;-83
2023/04/27 05:42:42;;;;;;;26.05;6.07;;;;;;;10.78;60.32;100311.56;5008878;28;20022;-82
2023/04/27 05:45:07;;;;;;;14.80;4.70;;;;;;;10.85;60.68;100314.56;5024757;28;20042;-81
2023/04/27 05:47:33;;;;;;;17.13;4.45;;;;;;;10.92;60.30;100316.56;5023925;28;20030;-80
2023/04/27 05:49:58;;;;;;;14.55;5.38;;;;;;;11.01;60.00;100338.28;5011132;28;20081;-80
2023/04/27 05:52:29;;;;;;;17.90;4.90;;;;;;;11.03;59.26;100344.38;5008514;28;20172;-81
2023/04/27 05:54:55;;;;;;;24.27;5.00;;;;;;;11.12;58.49;100351.66;5008418;28;20503;-82
2023/04/27 05:57:21;;;;;;;21.20;7.95;;;;;;;11.19;58.62;100342.06;5008427;28;20165;-88
2023/04/27 05:59:46;;;;;;;15.82;5.53;;;;;;;11.37;58.28;100340.41;5008337;28;20408;-84
2023/04/27 06:02:12;;;;;;;16.02;5.40;;;;;;;11.38;57.54;100380.66;4989271;28;20497;-84
2023/04/27 06:04:37;;;;;;;24.38;7.10;;;;;;;11.46;56.99;100363.81;5009411;28;20111;-85
2023/04/27 06:07:11;;;;;;;30.42;8.23;;;;;;;11.69;57.30;100376.06;5011018;28;20026;-87
2023/04/27 06:09:37;;;;;;;29.23;6.85;;;;;;;11.90;57.01;100381.38;5009220;28;20041;-83
2023/04/27 06:12:03;;;;;;;20.85;7.00;;;;;;;12.05;56.33;100373.78;5015335;28;20038;-83
2023/04/27 06:14:30;;;;;;;21.45;6.28;;;;;;;12.10;56.69;100382.28;5014575;28;20058;-79
2023/04/27 06:16:56;;;;;;;14.18;5.43;;;;;;;12.07;54.80;100401.44;5008382;28;20030;-80
2023/04/27 06:19:21;;;;;;;32.05;7.95;;;;;;;11.99;54.76;100365.25;5008015;28;20041;-80
2023/04/27 06:21:47;;;;;;;17.88;5.13;;;;;;;12.21;54.70;100396.47;5007891;28;20566;-81
2023/04/27 06:24:12;;;;;;;36.38;8.75;;;;;;;12.31;54.29;100397.34;5007962;28;20051;-81
2023/04/27 06:26:38;;;;;;;16.58;7.15;;;;;;;12.25;54.38;100383.56;5008097;28;20030;-80
2023/04/27 06:29:03;;;;;;;24.60;6.32;;;;;;;12.38;53.20;100394.94;5008469;28;20038;-79
2023/04/27 06:31:29;;;;;;;12.10;5.22;;;;;;;12.48;52.63;100398.47;5008626;28;20497;-81
2023/04/27 06:33:55;;;;;;;15.85;4.38;;;;;;;12.50;52.01;100413.53;5007578;28;20577;-79
2023/04/27 06:36:20;;;;;;;23.35;5.30;;;;;;;12.50;51.57;100396.50;5008909;28;20193;-82
2023/04/27 06:38:46;;;;;;;21.65;6.03;;;;;;;12.54;51.29;100414.06;5007474;28;20112;-80
2023/04/27 06:41:11;;;;;;;39.33;7.63;;;;;;;12.60;51.49;100402.72;5011937;28;20116;-80
2023/04/27 06:43:37;;;;;;;19.33;4.38;;;;;;;12.69;50.94;100407.25;5015646;28;20028;-80
2023/04/27 06:46:03;;;;;;;24.02;4.43;;;;;;;12.61;50.71;100420.59;5012762;28;20076;-79
2023/04/27 06:48:29;;;;;;;35.47;7.68;;;;;;;12.68;50.72;100424.44;5016491;28;20037;-81
2023/04/27 06:50:54;;;;;;;9.43;4.63;;;;;;;12.81;50.68;100416.06;5007828;28;20481;-80
2023/04/27 06:53:20;;;;;;;9.45;4.45;;;;;;;12.80;51.23;100415.19;5011270;28;20026;-81
2023/04/27 06:55:45;;;;;;;23.23;5.75;;;;;;;12.98;50.99;100424.25;5011566;28;20029;-83
2023/04/27 06:58:11;;;;;;;13.50;4.45;;;;;;;12.97;51.12;100421.69;5014723;28;20088;-80
2023/04/27 07:00:36;;;;;;;19.52;6.30;;;;;;;12.90;51.05;100416.03;5013506;28;20048;-79
2023/04/27 07:03:02;;;;;;;16.13;4.70;;;;;;;12.98;50.68;100424.25;5013477;28;20113;-81
2023/04/27 07:05:27;;;;;;;20.50;4.22;;;;;;;13.09;50.08;100431.38;5011449;28;20033;-81
2023/04/27 07:07:53;;;;;;;12.48;5.22;;;;;;;13.04;49.97;100434.47;5012361;28;20436;-81
2023/04/27 07:10:18;;;;;;;19.30;5.53;;;;;;;12.96;50.40;100410.06;5011103;28;20032;-80
2023/04/27 07:12:44;;;;;;;15.07;6.55;;;;;;;13.06;50.24;100431.63;5011427;28;20062;-81
2023/04/27 07:15:10;;;;;;;9.00;4.43;;;;;;;13.14;50.39;100433.66;5011609;28;20137;-80
2023/04/27 07:17:35;;;;;;;13.90;4.55;;;;;;;13.20;49.98;100438.47;5012160;28;20052;-79
2023/04/27 07:20:03;;;;;;;27.27;5.50;;;;;;;13.27;49.85;100431.47;5012016;28;20439;-82
2023/04/27 07:22:28;;;;;;;20.23;4.38;;;;;;;13.38;49.90;100420.50;5011002;28;20039;-81
2023/04/27 07:24:54;;;;;;;24.08;4.82;;;;;;;13.56;49.66;100424.13;5010785;28;20030;-81
2023/04/27 07:27:19;;;;;;;14.23;5.55;;;;;;;13.50;49.20;100408.50;5011913;28;20698;-80
2023/04/27 07:29:45;;;;;;;26.10;6.72;;;;;;;13.57;49.10;100437.50;5011583;28;20048;-80
2023/04/27 07:32:10;;;;;;;20.58;3.83;;;;;;;13.46;47.91;100424.16;5011159;28;20401;-81
2023/04/27 07:34:35;;;;;;;7.13;3.78;;;;;;;13.51;47.71;100410.22;5010555;28;20413;-81
2023/04/27 07:37:02;;;;;;;9.55;3.72;;;;;;;13.54;47.66;100396.41;5016586;28;20030;-81
2023/04/27 07:39:27;;;;;;;15.80;4.78;;;;;;;13.65;47.21;100393.50;5020590;28;20030;-81
2023/04/27 07:41:53;;;;;;;12.00;4.43;;;;;;;13.77;47.03;100400.41;5015818;28;20034;-81
2023/04/27 07:44:20;;;;;;;15.55;4.10;;;;;;;13.89;46.48;100404.59;5009235;28;20040;-82
2023/04/27 07:46:47;;;;;;;20.10;4.55;;;;;;;13.90;47.14;100398.19;5010422;28;20026;-80
2023/04/27 07:49:16;;;;;;;13.48;3.78;;;;;;;13.92;47.30;100393.47;5010143;28;20041;-82
2023/04/27 07:51:41;;;;;;;17.10;4.70;;;;;;;14.06;47.96;100395.69;5010143;28;20022;-80
2023/04/27 07:54:07;;;;;;;41.25;6.65;;;;;;;14.34;47.33;100392.94;5010702;28;20026;-81
2023/04/27 07:56:33;;;;;;;23.55;4.10;;;;;;;14.54;46.08;100379.09;5011309;28;20104;-80
2023/04/27 07:58:59;;;;;;;16.17;2.97;;;;;;;14.56;43.84;100376.22;5011354;28;20059;-80
2023/04/27 08:01:24;;;;;;;8.80;3.55;;;;;;;14.48;43.40;100359.91;5011387;28;20374;-83
2023/04/27 08:03:50;;;;;;;14.93;3.35;;;;;;;14.41;43.33;100372.34;5010423;28;20096;-82
2023/04/27 08:06:17;;;;;;;15.90;3.35;;;;;;;14.63;43.84;100359.19;5009976;28;20029;-81
2023/04/27 08:08:42;;;;;;;14.60;3.55;;;;;;;14.70;42.70;100357.56;5010319;28;20061;-81
2023/04/27 08:11:11;;;;;;;17.73;4.40;;;;;;;14.70;42.66;100356.72;5010353;28;20089;-81
2023/04/27 08:13:36;;;;;;;23.90;5.93;;;;;;;14.73;42.97;100351.00;5009984;28;20091;-81
2023/04/27 08:16:02;;;;;;;22.70;3.58;;;;;;;14.84;42.81;100339.88;5010501;28;20488;-81
2023/04/27 08:18:27;;;;;;;9.73;3.50;;;;;;;14.77;43.08;100344.22;5010212;28;20062;-79
2023/04/27 08:20:53;;;;;;;24.95;4.72;;;;;;;14.86;43.67;100339.75;5010197;28;20470;-81
2023/04/27 08:23:19;;;;;;;19.08;4.07;;;;;;;14.87;42.86;100339.56;5009057;28;20022;-79
2023/04/27 08:25:44;;;;;;;17.15;3.95;;;;;;;14.93;43.02;100347.06;5010404;28;20479;-81
2023/04/27 08:28:10;;;;;;;9.02;2.85;;;;;;;14.99;42.40;100341.00;5009236;28;20030;-82
2023/04/27 08:30:35;;;;;;;37.88;4.00;;;;;;;14.81;41.41;100352.88;5009514;28;20052;-81
2023/04/27 08:33:01;;;;;;;34.58;5.13;;;;;;;14.80;41.68;100341.19;5012974;28;20022;-80
2023/04/27 08:35:26;;;;;;;13.18;3.42;;;;;;;14.78;41.10;100343.22;5016428;28;20084;-80
2023/04/27 08:37:53;;;;;;;19.23;3.67;;;;;;;14.86;41.10;100356.81;5016290;28;20079;-79
2023/04/27 08:40:19;;;;;;;15.65;3.40;;;;;;;15.02;41.21;100356.94;5011982;28;20406;-80
2023/04/27 08:42:56;;;;;;;16.40;3.70;;;;;;;15.20;41.12;100364.97;5014322;28;20018;-79
2023/04/27 08:45:26;;;;;;;15.63;3.55;;;;;;;15.26;40.21;100357.06;5010068;28;20038;-82
2023/04/27 08:47:52;;;;;;;30.75;5.72;;;;;;;15.40;40.64;100368.31;5009555;28;20037;-82
2023/04/27 08:50:18;;;;;;;18.23;4.45;;;;;;;15.63;40.36;100367.59;5009504;28;20492;-81
2023/04/27 08:52:45;;;;;;;17.67;4.18;;;;;;;15.78;39.99;100351.53;5010075;28;20030;-81
2023/04/27 08:55:11;;;;;;;9.13;3.75;;;;;;;15.85;39.44;100354.44;5009556;28;20489;-80
2023/04/27 08:57:37;;;;;;;30.95;4.55;;;;;;;15.94;39.13;100357.03;5009448;28;20042;-79
2023/04/27 09:00:11;;;;;;;12.68;3.97;;;;;;;15.79;39.14;100367.66;5009403;28;20408;-82
2023/04/27 09:02:36;;;;;;;19.83;3.83;;;;;;;15.85;39.37;100381.56;4991497;28;20488;-82
2023/04/27 09:05:02;;;;;;;12.23;3.92;;;;;;;15.97;40.02;100375.69;5009221;28;20033;-83
2023/04/27 09:07:28;;;;;;;7.45;3.60;;;;;;;15.96;39.86;100387.53;4990738;28;20198;-80
2023/04/27 09:10:03;;;;;;;14.40;5.43;;;;;;;16.01;39.60;100406.03;5010027;28;20033;-83
2023/04/27 09:12:29;;;;;;;27.02;3.90;;;;;;;16.10;39.87;100418.63;5009560;28;20048;-81
2023/04/27 09:14:58;;;;;;;16.13;4.57;;;;;;;15.99;39.54;100399.94;5009185;28;20049;-81
2023/04/27 09:17:29;;;;;;;6.00;2.90;;;;;;;16.14;40.03;100398.28;5009126;28;20370;-82
2023/04/27 09:20:09;;;;;;;9.55;4.22;;;;;;;16.33;39.97;100411.53;5009681;28;20040;-81
2023/04/27 09:22:46;;;;;;;16.25;4.03;;;;;;;16.55;40.56;100420.94;5009099;28;20032;-82
2023/04/27 09:25:24;;;;;;;19.17;4.88;;;;;;;16.67;40.29;100427.72;5009121;28;20049;-78
2023/04/27 09:27:50;;;;;;;21.65;3.80;;;;;;;16.86;40.27;100411.09;5008947;28;20026;-81
2023/04/27 09:30:16;;;;;;;11.93;4.10;;;;;;;16.77;39.35;100442.84;5019154;28;20398;-80
2023/04/27 09:33:02;;;;;;;16.98;4.07;;;;;;;16.93;38.64;100427.56;5001507;28;20042;-82
2023/04/27 09:35:30;;;;;;;28.52;5.45;;;;;;;17.04;38.04;100433.50;5008277;28;20069;-80
2023/04/27 09:37:56;;;;;;;7.70;3.25;;;;;;;17.08;37.23;100432.16;5008940;28;20025;-81
2023/04/27 09:40:29;;;;;;;15.07;2.78;;;;;;;17.08;37.31;100432.16;5007273;28;20044;-83
2023/04/27 09:42:56;;;;;;;64.95;8.85;;;;;;;17.07;36.98;100416.84;5008960;28;20026;-80
2023/04/27 09:45:25;;;;;;;11.50;3.95;;;;;;;17.24;37.31;100426.72;5008375;28;20113;-82
2023/04/27 09:47:51;;;;;;;17.27;5.57;;;;;;;17.27;37.45;100441.81;5008311;28;20040;-82
2023/04/27 09:50:17;;;;;;;14.43;4.93;;;;;;;17.39;37.30;100430.41;5008465;28;20034;-81
2023/04/27 09:52:44;;;;;;;11.52;3.67;;;;;;;17.67;37.36;100443.63;5008665;28;20037;-81
2023/04/27 09:55:14;;;;;;;12.98;3.38;;;;;;;17.73;36.27;100441.06;5008947;28;20049;-82
2023/04/27 09:58:11;;;;;;;19.33;4.10;;;;;;;17.59;36.59;100458.09;5008566;28;20083;-81
2023/04/27 10:00:58;;;;;;;18.25;3.38;;;;;;;17.37;37.08;100431.56;5008915;28;20033;-80
2023/04/27 10:03:37;;;;;;;21.27;3.53;;;;;;;17.50;36.93;100441.91;5008827;28;20029;-81
2023/04/27 10:06:21;;;;;;;18.15;6.15;;;;;;;17.34;37.37;100442.81;5009781;28;20100;-82
2023/04/27 10:08:48;;;;;;;6.68;3.35;;;;;;;17.22;37.77;100445.03;5008571;28;20026;-80
2023/04/27 10:11:21;;;;;;;19.00;4.13;;;;;;;16.98;38.03;100450.50;5008211;28;20038;-82
2023/04/27 10:13:54;;;;;;;12.25;3.30;;;;;;;16.89;38.42;100459.66;5006850;28;20166;-81
2023/04/27 10:16:21;;;;;;;13.90;2.88;;;;;;;16.80;37.87;100460.69;5008224;28;20477;-82
2023/04/27 10:18:54;;;;;;;60.20;6.03;;;;;;;16.77;38.39;100455.59;5008585;28;20030;-80
2023/04/27 10:21:20;;;;;;;12.75;3.15;;;;;;;16.83;38.45;100439.47;5008546;28;20026;-81
2023/04/27 10:23:47;;;;;;;19.60;3.85;;;;;;;17.14;38.11;100449.63;5008236;28;20516;-81
2023/04/27 10:26:21;;;;;;;21.00;3.55;;;;;;;17.54;37.60;100454.16;5017434;28;20034;-81
2023/04/27 10:29:03;;;;;;;20.95;4.47;;;;;;;17.78;37.28;100451.41;5020403;28;20018;-80
2023/04/27 10:31:28;;;;;;;16.88;4.43;;;;;;;18.03;37.08;100450.28;5010883;28;20056;-79
2023/04/27 10:34:14;;;;;;;23.65;7.40;;;;;;;18.33;36.59;100464.94;5012546;28;20429;-81
2023/04/27 10:36:40;;;;;;;12.98;3.60;;;;;;;18.34;35.95;100445.69;5012666;28;20507;-80
2023/04/27 10:39:21;;;;;;;7.28;2.70;;;;;;;18.28;35.92;100465.47;5016750;28;20034;-80
2023/04/27 10:41:54;;;;;;;20.45;3.70;;;;;;;18.26;36.18;100448.44;5012731;28;20041;-80
2023/04/27 10:44:28;;;;;;;8.23;3.42;;;;;;;18.32;35.82;100455.91;5012330;28;20040;-81
2023/04/27 10:46:55;;;;;;;18.13;3.20;;;;;;;18.25;35.85;100457.66;5011726;28;20113;-80
2023/04/27 10:49:21;;;;;;;7.68;2.83;;;;;;;18.22;35.92;100449.00;5011524;28;20080;-80
2023/04/27 10:51:49;;;;;;;10.55;3.08;;;;;;;18.23;36.08;100456.97;5010830;28;20040;-81
2023/04/27 10:54:15;;;;;;;23.17;3.67;;;;;;;18.27;36.43;100455.59;5012611;28;20523;-80
2023/04/27 10:56:41;;;;;;;16.63;4.47;;;;;;;18.30;36.80;100436.19;5012043;28;20381;-81
2023/04/27 10:59:08;;;;;;;10.48;3.78;;;;;;;18.33;36.05;100446.72;5011331;28;20503;-82
2023/04/27 11:01:34;;;;;;;25.20;4.03;;;;;;;18.00;36.16;100453.34;5010944;28;20033;-80
2023/04/27 11:04:02;;;;;;;10.23;3.08;;;;;;;17.91;37.00;100435.38;5011443;28;20044;-82
2023/04/27 11:06:29;;;;;;;18.08;3.60;;;;;;;18.05;36.85;100431.88;5011685;28;20026;-80
2023/04/27 11:08:55;;;;;;;14.10;3.17;;;;;;;18.12;36.45;100426.59;5011048;28;20121;-81
2023/04/27 11:11:21;;;;;;;14.95;2.97;;;;;;;18.18;36.80;100432.16;4993239;28;20042;-80
2023/04/27 11:13:51;;;;;;;17.60;3.08;;;;;;;18.36;36.66;100429.16;5010745;28;20576;-81
2023/04/27 11:16:20;;;;;;;11.65;3.03;;;;;;;18.39;35.67;100440.56;5010400;28;20030;-81
2023/04/27 11:18:45;;;;;;;12.63;3.05;;;;;;;18.42;35.24;100447.50;5010598;28;20029;-81